createdAt,value
2023-05-18T00:00:35.699Z,8.50
2023-05-18T00:05:35.097Z,8.70
2023-05-18T00:10:31.821Z,8.50
2023-05-18T00:15:29.114Z,8.70
2023-05-18T00:22:57.356Z,8.10
2023-05-18T00:27:54.138Z,8.10
2023-05-18T00:35:21.593Z,8.50
2023-05-18T00:37:49.766Z,8.00
2023-05-18T00:40:19.831Z,8.10
2023-05-18T00:42:48.104Z,8.10
2023-05-18T00:45:16.312Z,8.10
2023-05-18T00:47:44.510Z,8.20
2023-05-18T00:52:42.369Z,8.40
2023-05-18T00:55:12.440Z,8.40
2023-05-18T00:57:45.653Z,8.20
2023-05-18T01:00:15.098Z,8.50
2023-05-18T01:02:45.476Z,8.10
2023-05-18T01:05:14.497Z,8.30
2023-05-18T01:07:43.529Z,8.30
2023-05-18T01:10:15.739Z,8.30
2023-05-18T01:12:51.852Z,8.20
2023-05-18T01:15:23.553Z,8.30
2023-05-18T01:18:15.095Z,8.20
2023-05-18T01:20:48.067Z,8.30
2023-05-18T01:23:44.917Z,8.50
2023-05-18T01:26:17.061Z,8.30
2023-05-18T01:28:47.941Z,8.50
2023-05-18T01:36:14.042Z,8.50
2023-05-18T01:41:21.671Z,8.40
2023-05-18T01:43:57.007Z,8.50
2023-05-18T01:46:35.700Z,8.30
2023-05-18T01:49:10.520Z,8.20
2023-05-18T01:51:45.259Z,8.30
2023-05-18T01:54:16.905Z,8.20
2023-05-18T01:56:47.586Z,8.20
2023-05-18T02:01:45.308Z,8.40
2023-05-18T02:09:10.726Z,7.80
2023-05-18T02:14:10.211Z,8.00
2023-05-18T02:31:33.714Z,7.70
2023-05-18T02:36:40.177Z,7.40
2023-05-18T02:39:08.933Z,7.50
2023-05-18T02:46:36.673Z,7.60
2023-05-18T03:01:57.721Z,7.60
2023-05-18T03:11:56.699Z,7.60
2023-05-18T03:16:58.851Z,7.80
2023-05-18T03:19:28.244Z,7.90
2023-05-18T03:29:31.574Z,7.70
2023-05-18T03:32:03.702Z,7.90
2023-05-18T03:34:32.068Z,7.70
2023-05-18T03:37:00.809Z,7.70
2023-05-18T03:39:30.125Z,8.10
2023-05-18T03:41:58.914Z,7.80
2023-05-18T03:44:27.153Z,7.90
2023-05-18T03:46:56.547Z,7.90
2023-05-18T03:49:26.284Z,8.10
2023-05-18T03:54:25.174Z,8.40
2023-05-18T03:56:53.724Z,7.90
2023-05-18T04:01:53.976Z,8.10
2023-05-18T04:04:27.525Z,7.90
2023-05-18T04:11:53.962Z,8.30
2023-05-18T04:16:53.001Z,8.30
2023-05-18T04:21:51.745Z,8.20
2023-05-18T04:31:48.930Z,8.50
2023-05-18T04:39:18.781Z,8.40
2023-05-18T04:49:16.297Z,8.40
2023-05-18T04:56:47.381Z,8.90
2023-05-18T05:01:44.598Z,8.80
2023-05-18T05:09:10.136Z,8.90
2023-05-18T05:14:08.378Z,9.20
2023-05-18T05:16:38.167Z,8.70
2023-05-18T05:19:06.807Z,8.90
2023-05-18T05:26:35.598Z,8.70
2023-05-18T05:31:34.689Z,8.90
2023-05-18T05:34:03.149Z,9.00
2023-05-18T05:39:00.163Z,8.90
2023-05-18T05:41:28.373Z,9.20
2023-05-18T05:46:25.982Z,9.40
2023-05-18T05:48:57.108Z,9.40
2023-05-18T05:56:23.076Z,9.70
2023-05-18T06:03:48.992Z,9.80
2023-05-18T06:06:18.792Z,10.20
2023-05-18T06:08:47.114Z,10.80
2023-05-18T06:16:14.064Z,10.20
2023-05-18T06:23:42.043Z,10.40
2023-05-18T06:29:21.350Z,10.40
2023-05-18T06:32:15.694Z,10.40
2023-05-18T06:34:47.393Z,10.00
2023-05-18T06:39:46.937Z,10.70
2023-05-18T06:42:15.498Z,10.40
2023-05-18T06:44:53.894Z,10.40
2023-05-18T06:47:44.919Z,10.70
2023-05-18T06:55:12.161Z,10.80
2023-05-18T06:57:41.458Z,11.00
2023-05-18T07:00:12.601Z,11.60
2023-05-18T07:02:40.976Z,11.60
2023-05-18T07:05:09.569Z,11.30
2023-05-18T07:07:37.959Z,11.30
2023-05-18T07:10:07.527Z,11.50
2023-05-18T07:12:37.151Z,11.70
2023-05-18T07:22:34.270Z,11.80
2023-05-18T07:25:02.391Z,11.50
2023-05-18T07:27:31.032Z,11.20
2023-05-18T07:30:00.588Z,11.90
2023-05-18T07:32:28.790Z,12.30
2023-05-18T07:34:57.020Z,12.10
2023-05-18T07:39:54.212Z,11.40
2023-05-18T07:44:50.929Z,12.00
2023-05-18T07:47:21.607Z,12.20
2023-05-18T07:54:47.411Z,12.30
2023-05-18T07:57:15.640Z,11.30
2023-05-18T07:59:43.914Z,11.80
2023-05-18T08:04:42.145Z,11.70
2023-05-18T08:09:38.900Z,11.50
2023-05-18T08:12:07.929Z,11.70
2023-05-18T08:14:36.083Z,11.70
2023-05-18T08:17:05.032Z,12.50
2023-05-18T08:19:33.466Z,12.80
2023-05-18T08:22:03.374Z,13.70
2023-05-18T08:24:31.955Z,13.70
2023-05-18T08:27:00.447Z,13.80
2023-05-18T08:29:28.553Z,13.40
2023-05-18T08:31:56.934Z,13.40
2023-05-18T08:39:23.660Z,13.50
2023-05-18T08:41:58.795Z,13.20
2023-05-18T08:44:35.257Z,13.30
2023-05-18T08:47:06.236Z,14.10
2023-05-18T08:52:05.835Z,14.50
2023-05-18T08:54:38.155Z,13.90
2023-05-18T08:57:10.218Z,13.30
2023-05-18T08:59:42.826Z,14.30
2023-05-18T09:02:11.699Z,15.30
2023-05-18T09:04:40.059Z,15.60
2023-05-18T09:07:10.227Z,15.10
2023-05-18T09:09:40.852Z,16.70
2023-05-18T09:12:10.711Z,14.30
2023-05-18T09:14:39.774Z,14.10
2023-05-18T09:19:36.984Z,13.20
2023-05-18T09:22:06.124Z,14.20
2023-05-18T09:24:34.544Z,14.80
2023-05-18T09:27:04.504Z,15.90
2023-05-18T09:29:33.891Z,16.20
2023-05-18T09:32:04.974Z,16.20
2023-05-18T09:34:41.286Z,15.80
2023-05-18T09:37:10.836Z,14.50
2023-05-18T09:39:38.961Z,14.70
2023-05-18T09:42:08.831Z,14.30
2023-05-18T09:47:09.817Z,15.70
2023-05-18T09:49:38.736Z,15.00
2023-05-18T09:52:09.500Z,14.90
2023-05-18T09:54:39.198Z,15.90
2023-05-18T09:57:11.426Z,15.70
2023-05-18T09:59:39.919Z,15.30
2023-05-18T10:02:09.078Z,16.50
2023-05-18T10:04:38.922Z,16.70
2023-05-18T10:07:13.956Z,16.40
2023-05-18T10:09:42.808Z,15.50
2023-05-18T10:12:16.591Z,15.00
2023-05-18T10:14:46.282Z,15.20
2023-05-18T10:19:46.890Z,14.50
2023-05-18T10:22:18.571Z,15.10
2023-05-18T10:24:51.307Z,14.20
2023-05-18T10:27:27.812Z,13.50
2023-05-18T10:29:58.501Z,14.50
2023-05-18T10:32:27.654Z,15.30
2023-05-18T10:34:57.960Z,15.60
2023-05-18T10:37:31.469Z,15.80
2023-05-18T10:40:02.721Z,16.10
2023-05-18T10:42:32.720Z,15.50
2023-05-18T10:45:02.127Z,15.20
2023-05-18T10:47:32.126Z,14.80
2023-05-18T10:50:01.383Z,16.30
2023-05-18T10:52:31.994Z,15.70
2023-05-18T10:55:01.123Z,15.60
2023-05-18T10:57:35.765Z,15.40
2023-05-18T11:00:07.800Z,16.50
2023-05-18T11:02:36.655Z,17.40
2023-05-18T11:05:07.554Z,14.50
2023-05-18T11:07:35.988Z,15.30
2023-05-18T11:10:09.682Z,15.80
2023-05-18T11:12:42.331Z,15.70
2023-05-18T11:15:11.291Z,14.90
2023-05-18T11:20:15.905Z,15.20
2023-05-18T11:22:47.378Z,15.70
2023-05-18T11:25:54.983Z,15.70
2023-05-18T11:28:24.709Z,16.50
2023-05-18T11:30:52.980Z,15.70
2023-05-18T11:33:28.147Z,16.40
2023-05-18T11:36:02.900Z,16.70
2023-05-18T11:38:54.409Z,15.20
2023-05-18T11:41:33.605Z,16.00
2023-05-18T11:44:18.229Z,16.80
2023-05-18T11:46:54.489Z,15.60
2023-05-18T11:49:25.286Z,16.40
2023-05-18T11:52:07.822Z,17.10
2023-05-18T11:54:40.975Z,17.90
2023-05-18T11:57:10.977Z,16.60
2023-05-18T11:59:42.801Z,17.40
2023-05-18T12:02:13.149Z,17.20
2023-05-18T12:04:46.710Z,16.60
2023-05-18T12:09:44.958Z,16.30
2023-05-18T12:12:17.158Z,17.20
2023-05-18T12:14:53.959Z,16.80
2023-05-18T12:17:22.295Z,15.70
2023-05-18T12:19:51.268Z,16.70
2023-05-18T12:24:48.240Z,16.60
2023-05-18T12:27:16.738Z,17.90
2023-05-18T12:29:46.372Z,18.60
2023-05-18T12:34:45.897Z,16.70
2023-05-18T12:37:14.081Z,16.70
2023-05-18T12:39:42.395Z,17.40
2023-05-18T12:42:12.516Z,18.10
2023-05-18T12:44:42.182Z,17.80
2023-05-18T12:47:12.361Z,16.80
2023-05-18T12:49:42.113Z,16.60
2023-05-18T12:54:55.105Z,17.20
2023-05-18T12:57:27.149Z,18.40
2023-05-18T12:59:55.928Z,18.50
2023-05-18T13:02:37.376Z,17.80
2023-05-18T13:05:10.575Z,16.90
2023-05-18T13:07:40.850Z,17.50
2023-05-18T13:10:10.757Z,17.90
2023-05-18T13:12:46.900Z,18.00
2023-05-18T13:15:17.187Z,18.40
2023-05-18T13:18:01.371Z,18.20
2023-05-18T13:20:36.192Z,16.60
2023-05-18T13:23:06.536Z,16.60
2023-05-18T13:35:31.450Z,17.50
2023-05-18T13:37:59.845Z,17.20
2023-05-18T13:40:28.464Z,17.30
2023-05-18T13:42:56.662Z,16.70
2023-05-18T13:45:25.962Z,16.50
2023-05-18T13:50:26.091Z,15.80
2023-05-18T13:52:55.073Z,16.30
2023-05-18T13:55:23.644Z,16.30
2023-05-18T13:57:51.913Z,17.10
2023-05-18T14:00:21.573Z,16.40
2023-05-18T14:02:49.924Z,16.10
2023-05-18T14:05:18.132Z,16.10
2023-05-18T14:07:47.770Z,15.90
2023-05-18T14:12:44.386Z,16.10
2023-05-18T14:15:14.127Z,15.90
2023-05-18T14:17:43.120Z,16.00
2023-05-18T14:20:12.357Z,15.60
2023-05-18T14:22:41.037Z,15.50
2023-05-18T14:25:11.039Z,15.90
2023-05-18T14:30:09.054Z,15.50
2023-05-18T14:32:37.363Z,15.40
2023-05-18T14:35:06.457Z,15.50
2023-05-18T14:37:34.762Z,14.90
2023-05-18T14:40:03.014Z,15.00
2023-05-18T14:47:29.998Z,15.50
2023-05-18T14:54:55.746Z,15.40
2023-05-18T14:57:26.539Z,15.40
2023-05-18T14:59:56.642Z,14.60
2023-05-18T15:02:24.994Z,14.70
2023-05-18T15:04:53.295Z,14.80
2023-05-18T15:07:21.616Z,14.60
2023-05-18T15:09:49.796Z,14.90
2023-05-18T15:17:18.080Z,15.00
2023-05-18T15:19:47.152Z,15.10
2023-05-18T15:22:15.341Z,14.90
2023-05-18T15:24:43.735Z,15.00
2023-05-18T15:27:12.204Z,15.10
2023-05-18T15:32:09.621Z,14.40
2023-05-18T15:34:39.360Z,14.50
2023-05-18T15:39:39.369Z,14.40
2023-05-18T15:42:07.962Z,14.70
2023-05-18T15:47:05.822Z,14.90
2023-05-18T15:49:34.058Z,14.80
2023-05-18T15:52:03.670Z,14.00
2023-05-18T15:54:31.898Z,14.40
2023-05-18T15:57:00.185Z,12.40
2023-05-18T15:59:29.043Z,14.20
2023-05-18T16:04:25.839Z,14.60
2023-05-18T16:06:54.105Z,14.50
2023-05-18T16:14:21.210Z,14.80
2023-05-18T16:19:18.692Z,14.70
2023-05-18T16:21:47.056Z,14.10
2023-05-18T16:24:15.267Z,14.40
2023-05-18T16:29:13.513Z,14.40
2023-05-18T16:34:10.295Z,14.60
2023-05-18T16:36:38.596Z,14.30
2023-05-18T16:39:07.988Z,14.10
2023-05-18T16:41:36.257Z,14.10
2023-05-18T16:44:06.012Z,14.30
2023-05-18T16:46:34.261Z,14.30
2023-05-18T16:58:58.341Z,13.60
2023-05-18T17:01:29.227Z,13.70
2023-05-18T17:03:58.793Z,14.00
2023-05-18T17:08:58.671Z,14.30
2023-05-18T17:11:28.629Z,13.90
2023-05-18T17:13:57.736Z,14.10
2023-05-18T17:16:28.644Z,14.10
2023-05-18T17:18:57.808Z,13.30
2023-05-18T17:23:57.172Z,13.90
2023-05-18T17:26:30.602Z,13.70
2023-05-18T17:31:30.476Z,13.70
2023-05-18T17:33:58.916Z,13.80
2023-05-18T17:38:56.252Z,13.70
2023-05-18T17:41:26.058Z,13.50
2023-05-18T17:43:54.532Z,13.70
2023-05-18T17:48:53.065Z,13.60
2023-05-18T17:51:21.935Z,13.50
2023-05-18T17:53:50.121Z,13.20
2023-05-18T17:56:18.851Z,13.60
2023-05-18T17:58:47.201Z,13.80
2023-05-18T18:01:15.846Z,13.20
2023-05-18T18:06:14.882Z,13.50
2023-05-18T18:13:42.215Z,13.00
2023-05-18T18:16:10.382Z,12.90
2023-05-18T18:18:39.521Z,13.10
2023-05-18T18:21:08.303Z,12.90
2023-05-18T18:23:40.113Z,13.10
2023-05-18T18:26:08.702Z,12.80
2023-05-18T18:38:37.167Z,12.70
2023-05-18T18:41:05.556Z,12.60
2023-05-18T18:43:38.773Z,12.60
2023-05-18T18:53:33.469Z,12.90
2023-05-18T18:56:03.361Z,12.70
2023-05-18T18:58:31.522Z,12.70
2023-05-18T19:03:28.610Z,12.70
2023-05-18T19:05:56.930Z,12.40
2023-05-18T19:08:25.240Z,12.90
2023-05-18T19:13:23.521Z,12.70
2023-05-18T19:15:52.259Z,12.40
2023-05-18T19:18:20.490Z,13.00
2023-05-18T19:25:46.187Z,12.60
2023-05-18T19:30:44.291Z,13.10
2023-05-18T19:35:41.623Z,13.20
2023-05-18T19:38:09.813Z,12.70
2023-05-18T19:43:06.680Z,13.40
2023-05-18T19:48:06.199Z,13.10
2023-05-18T19:50:34.579Z,13.20
2023-05-18T19:55:34.281Z,12.60
2023-05-18T19:58:02.878Z,13.10
2023-05-18T20:03:03.799Z,11.80
2023-05-18T20:05:33.695Z,12.90
2023-05-18T20:15:32.396Z,12.80
2023-05-18T20:23:04.000Z,12.90
2023-05-18T20:25:34.969Z,13.00
2023-05-18T20:30:35.517Z,12.50
2023-05-18T20:33:04.718Z,12.90
2023-05-18T20:35:33.854Z,12.80
2023-05-18T20:38:04.672Z,12.30
2023-05-18T20:43:02.379Z,12.40
2023-05-18T20:45:31.522Z,12.40
2023-05-18T20:50:29.420Z,13.00
2023-05-18T20:52:57.750Z,12.40
2023-05-18T21:02:54.467Z,12.70
2023-05-18T21:07:53.526Z,12.30
2023-05-18T21:12:51.743Z,12.60
2023-05-18T21:30:15.754Z,12.70
2023-05-18T21:35:12.944Z,12.40
2023-05-18T21:40:10.702Z,12.60
2023-05-18T21:42:45.010Z,12.70
2023-05-18T21:47:43.725Z,12.00
2023-05-18T21:52:40.810Z,12.20
2023-05-18T21:55:10.115Z,12.50
2023-05-18T22:00:08.476Z,12.40
2023-05-18T22:02:43.848Z,12.20
2023-05-18T22:05:12.280Z,12.30
2023-05-18T22:10:09.486Z,11.80
2023-05-18T22:15:10.559Z,12.50
2023-05-18T22:20:11.692Z,11.90
2023-05-18T22:22:41.287Z,12.50
2023-05-18T22:25:10.262Z,11.80
2023-05-18T22:27:39.018Z,11.90
2023-05-18T22:30:08.054Z,12.30
2023-05-18T22:32:36.475Z,11.90
2023-05-18T22:37:34.800Z,12.00
2023-05-18T22:42:31.598Z,11.50
2023-05-18T22:47:29.635Z,12.00
2023-05-18T22:54:57.605Z,12.00
2023-05-18T22:57:25.912Z,11.60
2023-05-18T23:02:22.568Z,12.00
2023-05-18T23:07:19.488Z,11.40
2023-05-18T23:09:47.660Z,11.80
2023-05-18T23:14:45.969Z,11.60
2023-05-18T23:29:42.757Z,11.20
2023-05-18T23:32:11.050Z,11.30
2023-05-18T23:34:39.945Z,11.00
2023-05-18T23:37:10.672Z,11.30
2023-05-18T23:39:40.684Z,13.30
2023-05-18T23:42:10.758Z,11.10
2023-05-18T23:44:41.607Z,10.80
2023-05-18T23:47:10.799Z,10.60
2023-05-18T23:49:39.403Z,11.00
2023-05-18T23:52:09.014Z,10.70
2023-05-18T23:54:37.938Z,10.90
2023-05-18T23:59:35.726Z,10.70
